Pagina principale
METAR-TAF:

METAR-TAF

Aeroporti :

Cerklje ob Krki, Slovenia

latitudine: 45-53-59N, longitudine: 15-30-55E, altezza: 157 m

Osservazione

Il bollettino è stato emesso 37 minuti fa, alle 15:30 UTC
Vento 5 kt da est, variando fra est/nord-est e sud/sud-est
Temperature 21°C
Umidità 43%
Pressione 1019 hPa
Visibilità 10 km o più

METAR: LJCE 231530Z AUTO 10005KT 060V160 9999 NSC 21/08 Q1019

Ora: 18:07 (16:07 UTC)

Previsione

Il bollettino è stato emesso 2 ore e 7 minuti fa, alle 14:00 UTC
Previsione valida dal 23 alle 15 UTC al 23 alle 24 UTC
Vento 4 kt da est
Visibilità 10 km o più
nessuna nube inferiore a 1500 m e nessun cumulonembo
Evoluzione graduale
dal 23 alle 17 UTC al 23 alle 19 UTC
Vento 2 kt da direzioni variabili

TAF: LJCE 231400Z 2315/2324 09004KT CAVOK BECMG 2317/2319 VRB02KT

Osservazioni e previsioni meteorologiche di più di 4000 aeroporti (messaggi METAR e TAF).

Le stazioni disponibili sono rappresentate dai dischi gialli e rossi sulla carta.

Puntare il mouse per vedere il nome della stazione.

Clicca sopra per visualizzare le osservazioni e previsioni meteorologiche.

Per cambiare la mappa : fare clic sui pulsanti verdi con una croce nera per ingrandire, il pulsante verde con un trattino per diminuire, o sulla freccia verde per le mappe adiacenti.


METAR-TAF: